sensor_id;sensor_type;location;lat;lon;timestamp;temperature;humidity
48206;DHT22;33995;48.202;16.260;2022-09-30T00:01:23;11.90;99.90
48206;DHT22;33995;48.202;16.260;2022-09-30T00:03:52;12.00;99.90
48206;DHT22;33995;48.202;16.260;2022-09-30T00:06:20;12.10;99.90
48206;DHT22;33995;48.202;16.260;2022-09-30T00:08:48;12.10;99.90
48206;DHT22;33995;48.202;16.260;2022-09-30T00:11:18;12.10;99.90
48206;DHT22;33995;48.202;16.260;2022-09-30T00:13:48;12.20;99.90
48206;DHT22;33995;48.202;16.260;2022-09-30T00:16:18;12.20;99.90
48206;DHT22;33995;48.202;16.260;2022-09-30T00:18:47;12.20;99.90
48206;DHT22;33995;48.202;16.260;2022-09-30T00:21:15;12.20;99.90
48206;DHT22;33995;48.202;16.260;2022-09-30T00:23:44;12.20;99.90
48206;DHT22;33995;48.202;16.260;2022-09-30T00:26:15;12.10;99.90
48206;DHT22;33995;48.202;16.260;2022-09-30T00:28:44;12.10;99.90
48206;DHT22;33995;48.202;16.260;2022-09-30T00:31:14;12.20;99.90
48206;DHT22;33995;48.202;16.260;2022-09-30T00:33:43;12.10;99.90
48206;DHT22;33995;48.202;16.260;2022-09-30T00:36:10;12.20;99.90
48206;DHT22;33995;48.202;16.260;2022-09-30T00:38:37;12.30;99.90
48206;DHT22;33995;48.202;16.260;2022-09-30T00:41:05;12.20;99.90
48206;DHT22;33995;48.202;16.260;2022-09-30T00:43:47;12.20;99.90
48206;DHT22;33995;48.202;16.260;2022-09-30T00:46:38;12.20;99.90
48206;DHT22;33995;48.202;16.260;2022-09-30T00:49:15;12.30;99.90
48206;DHT22;33995;48.202;16.260;2022-09-30T00:51:48;12.30;99.90
48206;DHT22;33995;48.202;16.260;2022-09-30T00:54:20;12.20;99.90
48206;DHT22;33995;48.202;16.260;2022-09-30T00:56:53;12.30;99.90
48206;DHT22;33995;48.202;16.260;2022-09-30T00:59:26;12.30;99.90
48206;DHT22;33995;48.202;16.260;2022-09-30T01:01:55;12.30;99.90
48206;DHT22;33995;48.202;16.260;2022-09-30T01:04:25;12.30;99.90
48206;DHT22;33995;48.202;16.260;2022-09-30T01:06:53;12.30;99.90
48206;DHT22;33995;48.202;16.260;2022-09-30T01:09:21;12.30;99.90
48206;DHT22;33995;48.202;16.260;2022-09-30T01:11:49;12.30;99.90
48206;DHT22;33995;48.202;16.260;2022-09-30T01:14:19;12.30;99.90
48206;DHT22;33995;48.202;16.260;2022-09-30T01:28:39;12.40;99.90
48206;DHT22;33995;48.202;16.260;2022-09-30T01:36:16;12.40;99.90
48206;DHT22;33995;48.202;16.260;2022-09-30T01:44:13;12.40;99.90
48206;DHT22;33995;48.202;16.260;2022-09-30T01:46:46;12.40;99.90
48206;DHT22;33995;48.202;16.260;2022-09-30T01:49:26;12.40;99.90
48206;DHT22;33995;48.202;16.260;2022-09-30T01:52:22;12.40;99.90
48206;DHT22;33995;48.202;16.260;2022-09-30T01:55:01;12.40;99.90
48206;DHT22;33995;48.202;16.260;2022-09-30T01:57:43;12.30;99.90
48206;DHT22;33995;48.202;16.260;2022-09-30T02:00:12;12.30;99.90
48206;DHT22;33995;48.202;16.260;2022-09-30T02:02:46;12.30;99.90
48206;DHT22;33995;48.202;16.260;2022-09-30T02:05:54;12.20;99.90
48206;DHT22;33995;48.202;16.260;2022-09-30T02:10:58;12.10;99.90
48206;DHT22;33995;48.202;16.260;2022-09-30T02:13:29;12.10;99.90
48206;DHT22;33995;48.202;16.260;2022-09-30T02:16:05;12.00;99.90
48206;DHT22;33995;48.202;16.260;2022-09-30T02:18:52;12.00;99.90
48206;DHT22;33995;48.202;16.260;2022-09-30T02:21:24;12.00;99.90
48206;DHT22;33995;48.202;16.260;2022-09-30T02:23:58;12.00;99.90
48206;DHT22;33995;48.202;16.260;2022-09-30T02:26:33;12.00;99.90
48206;DHT22;33995;48.202;16.260;2022-09-30T02:29:12;11.90;99.90
48206;DHT22;33995;48.202;16.260;2022-09-30T02:31:43;11.90;99.90
48206;DHT22;33995;48.202;16.260;2022-09-30T02:34:18;11.90;99.90
48206;DHT22;33995;48.202;16.260;2022-09-30T02:37:04;11.90;99.90
48206;DHT22;33995;48.202;16.260;2022-09-30T02:39:46;11.90;99.90
48206;DHT22;33995;48.202;16.260;2022-09-30T02:42:25;11.80;99.90
48206;DHT22;33995;48.202;16.260;2022-09-30T02:45:01;11.80;99.90
48206;DHT22;33995;48.202;16.260;2022-09-30T02:48:01;11.80;99.90
48206;DHT22;33995;48.202;16.260;2022-09-30T02:53:25;11.70;99.90
48206;DHT22;33995;48.202;16.260;2022-09-30T02:56:03;11.70;99.90
48206;DHT22;33995;48.202;16.260;2022-09-30T02:58:34;11.70;99.90
48206;DHT22;33995;48.202;16.260;2022-09-30T03:01:09;11.70;99.90
48206;DHT22;33995;48.202;16.260;2022-09-30T03:03:49;11.70;99.90
48206;DHT22;33995;48.202;16.260;2022-09-30T03:06:18;11.60;99.90
48206;DHT22;33995;48.202;16.260;2022-09-30T03:08:46;11.60;99.90
48206;DHT22;33995;48.202;16.260;2022-09-30T03:11:17;11.60;99.90
48206;DHT22;33995;48.202;16.260;2022-09-30T03:13:58;11.60;99.90
48206;DHT22;33995;48.202;16.260;2022-09-30T03:19:31;11.60;99.90
48206;DHT22;33995;48.202;16.260;2022-09-30T03:22:20;11.60;99.90
48206;DHT22;33995;48.202;16.260;2022-09-30T03:30:54;11.60;99.90
48206;DHT22;33995;48.202;16.260;2022-09-30T03:33:37;11.60;99.90
48206;DHT22;33995;48.202;16.260;2022-09-30T03:44:15;11.50;99.90
48206;DHT22;33995;48.202;16.260;2022-09-30T03:46:48;11.50;99.90
48206;DHT22;33995;48.202;16.260;2022-09-30T03:49:22;11.50;99.90
48206;DHT22;33995;48.202;16.260;2022-09-30T03:51:50;11.50;99.90
48206;DHT22;33995;48.202;16.260;2022-09-30T03:54:18;11.40;99.90
48206;DHT22;33995;48.202;16.260;2022-09-30T03:56:46;11.40;99.90
48206;DHT22;33995;48.202;16.260;2022-09-30T03:59:26;11.40;99.90
48206;DHT22;33995;48.202;16.260;2022-09-30T04:01:56;11.40;99.90
48206;DHT22;33995;48.202;16.260;2022-09-30T04:04:24;11.40;99.90
48206;DHT22;33995;48.202;16.260;2022-09-30T04:06:51;11.40;99.90
48206;DHT22;33995;48.202;16.260;2022-09-30T04:09:19;11.40;99.90
48206;DHT22;33995;48.202;16.260;2022-09-30T04:11:46;11.40;99.90
48206;DHT22;33995;48.202;16.260;2022-09-30T04:14:14;11.40;99.90
48206;DHT22;33995;48.202;16.260;2022-09-30T04:16:41;11.40;99.90
48206;DHT22;33995;48.202;16.260;2022-09-30T04:19:09;11.40;99.90
48206;DHT22;33995;48.202;16.260;2022-09-30T04:21:36;11.40;99.90
48206;DHT22;33995;48.202;16.260;2022-09-30T04:24:04;11.40;99.90
48206;DHT22;33995;48.202;16.260;2022-09-30T04:26:31;11.40;99.90
48206;DHT22;33995;48.202;16.260;2022-09-30T04:28:58;11.40;99.90
48206;DHT22;33995;48.202;16.260;2022-09-30T04:31:26;11.40;99.90
48206;DHT22;33995;48.202;16.260;2022-09-30T04:33:55;11.40;99.90
48206;DHT22;33995;48.202;16.260;2022-09-30T04:36:23;11.40;99.90
48206;DHT22;33995;48.202;16.260;2022-09-30T04:38:50;11.30;99.90
48206;DHT22;33995;48.202;16.260;2022-09-30T04:41:19;11.30;99.90
48206;DHT22;33995;48.202;16.260;2022-09-30T04:43:47;11.40;99.90
48206;DHT22;33995;48.202;16.260;2022-09-30T04:46:16;11.40;99.90
48206;DHT22;33995;48.202;16.260;2022-09-30T04:48:44;11.40;99.90
48206;DHT22;33995;48.202;16.260;2022-09-30T04:51:16;11.40;99.90
48206;DHT22;33995;48.202;16.260;2022-09-30T04:53:44;11.40;99.90
48206;DHT22;33995;48.202;16.260;2022-09-30T04:56:13;11.40;99.90
48206;DHT22;33995;48.202;16.260;2022-09-30T04:58:40;11.40;99.90
48206;DHT22;33995;48.202;16.260;2022-09-30T05:01:10;11.40;99.90
48206;DHT22;33995;48.202;16.260;2022-09-30T05:03:38;11.40;99.90
48206;DHT22;33995;48.202;16.260;2022-09-30T05:06:06;11.40;99.90
48206;DHT22;33995;48.202;16.260;2022-09-30T05:08:34;11.40;99.90
48206;DHT22;33995;48.202;16.260;2022-09-30T05:11:04;11.30;99.90
48206;DHT22;33995;48.202;16.260;2022-09-30T05:13:34;11.40;99.90
48206;DHT22;33995;48.202;16.260;2022-09-30T05:16:04;11.40;99.90
48206;DHT22;33995;48.202;16.260;2022-09-30T05:18:32;11.40;99.90
48206;DHT22;33995;48.202;16.260;2022-09-30T05:21:03;11.30;99.90
48206;DHT22;33995;48.202;16.260;2022-09-30T05:23:31;11.40;99.90
48206;DHT22;33995;48.202;16.260;2022-09-30T05:26:00;11.40;99.90
48206;DHT22;33995;48.202;16.260;2022-09-30T05:28:28;11.40;99.90
48206;DHT22;33995;48.202;16.260;2022-09-30T05:31:02;11.40;99.90
48206;DHT22;33995;48.202;16.260;2022-09-30T05:33:29;11.40;99.90
48206;DHT22;33995;48.202;16.260;2022-09-30T05:36:03;11.40;99.90
48206;DHT22;33995;48.202;16.260;2022-09-30T05:38:31;11.30;99.90
48206;DHT22;33995;48.202;16.260;2022-09-30T05:41:05;11.40;99.90
48206;DHT22;33995;48.202;16.260;2022-09-30T05:43:34;11.30;99.90
48206;DHT22;33995;48.202;16.260;2022-09-30T05:46:03;11.30;99.90
48206;DHT22;33995;48.202;16.260;2022-09-30T05:48:31;11.30;99.90
48206;DHT22;33995;48.202;16.260;2022-09-30T05:50:58;11.30;99.90
48206;DHT22;33995;48.202;16.260;2022-09-30T05:53:28;11.30;99.90
48206;DHT22;33995;48.202;16.260;2022-09-30T05:55:57;11.30;99.90
48206;DHT22;33995;48.202;16.260;2022-09-30T05:58:25;11.30;99.90
48206;DHT22;33995;48.202;16.260;2022-09-30T06:00:53;11.30;99.90
48206;DHT22;33995;48.202;16.260;2022-09-30T06:03:21;11.30;99.90
48206;DHT22;33995;48.202;16.260;2022-09-30T06:05:54;11.30;99.90
48206;DHT22;33995;48.202;16.260;2022-09-30T06:08:23;11.30;99.90
48206;DHT22;33995;48.202;16.260;2022-09-30T06:10:50;11.30;99.90
48206;DHT22;33995;48.202;16.260;2022-09-30T06:13:18;11.20;99.90
48206;DHT22;33995;48.202;16.260;2022-09-30T06:15:55;11.30;99.90
48206;DHT22;33995;48.202;16.260;2022-09-30T06:18:23;11.30;99.90
48206;DHT22;33995;48.202;16.260;2022-09-30T06:20:59;11.30;99.90
48206;DHT22;33995;48.202;16.260;2022-09-30T06:23:29;11.30;99.90
48206;DHT22;33995;48.202;16.260;2022-09-30T06:25:57;11.30;99.90
48206;DHT22;33995;48.202;16.260;2022-09-30T06:28:25;11.30;99.90
48206;DHT22;33995;48.202;16.260;2022-09-30T06:30:53;11.30;99.90
48206;DHT22;33995;48.202;16.260;2022-09-30T06:33:21;11.30;99.90
48206;DHT22;33995;48.202;16.260;2022-09-30T06:35:50;11.30;99.90
48206;DHT22;33995;48.202;16.260;2022-09-30T06:38:17;11.30;99.90
48206;DHT22;33995;48.202;16.260;2022-09-30T06:40:44;11.30;99.90
48206;DHT22;33995;48.202;16.260;2022-09-30T06:43:16;11.30;99.90
48206;DHT22;33995;48.202;16.260;2022-09-30T06:45:46;11.40;99.90
48206;DHT22;33995;48.202;16.260;2022-09-30T06:48:14;11.40;99.90
48206;DHT22;33995;48.202;16.260;2022-09-30T06:50:50;11.40;99.90
48206;DHT22;33995;48.202;16.260;2022-09-30T06:53:28;11.40;99.90
48206;DHT22;33995;48.202;16.260;2022-09-30T06:55:56;11.30;99.90
48206;DHT22;33995;48.202;16.260;2022-09-30T06:58:24;11.30;99.90
48206;DHT22;33995;48.202;16.260;2022-09-30T07:00:59;11.40;99.90
48206;DHT22;33995;48.202;16.260;2022-09-30T07:03:30;11.40;99.90
48206;DHT22;33995;48.202;16.260;2022-09-30T07:06:02;11.40;99.90
48206;DHT22;33995;48.202;16.260;2022-09-30T07:08:31;11.40;99.90
48206;DHT22;33995;48.202;16.260;2022-09-30T07:11:07;11.50;99.90
48206;DHT22;33995;48.202;16.260;2022-09-30T07:13:44;11.40;99.90
48206;DHT22;33995;48.202;16.260;2022-09-30T07:16:14;11.40;99.90
48206;DHT22;33995;48.202;16.260;2022-09-30T07:18:42;11.50;99.90
48206;DHT22;33995;48.202;16.260;2022-09-30T07:21:10;11.40;99.90
48206;DHT22;33995;48.202;16.260;2022-09-30T07:23:39;11.40;99.90
48206;DHT22;33995;48.202;16.260;2022-09-30T07:26:19;11.50;99.90
48206;DHT22;33995;48.202;16.260;2022-09-30T07:28:47;11.50;99.90
48206;DHT22;33995;48.202;16.260;2022-09-30T07:31:24;11.50;99.90
48206;DHT22;33995;48.202;16.260;2022-09-30T07:34:03;11.50;99.90
48206;DHT22;33995;48.202;16.260;2022-09-30T07:36:34;11.50;99.90
48206;DHT22;33995;48.202;16.260;2022-09-30T07:39:05;11.40;99.90
48206;DHT22;33995;48.202;16.260;2022-09-30T07:41:35;11.50;99.90
48206;DHT22;33995;48.202;16.260;2022-09-30T07:44:11;11.50;99.90
48206;DHT22;33995;48.202;16.260;2022-09-30T07:46:41;11.50;99.90
48206;DHT22;33995;48.202;16.260;2022-09-30T07:49:14;11.50;99.90
48206;DHT22;33995;48.202;16.260;2022-09-30T07:51:55;11.60;99.90
48206;DHT22;33995;48.202;16.260;2022-09-30T07:54:26;11.60;99.90
48206;DHT22;33995;48.202;16.260;2022-09-30T07:56:54;11.60;99.90
48206;DHT22;33995;48.202;16.260;2022-09-30T07:59:38;11.60;99.90
48206;DHT22;33995;48.202;16.260;2022-09-30T08:02:10;11.70;99.90
48206;DHT22;33995;48.202;16.260;2022-09-30T08:04:38;11.80;99.90
48206;DHT22;33995;48.202;16.260;2022-09-30T08:07:12;11.80;99.90
48206;DHT22;33995;48.202;16.260;2022-09-30T08:09:39;11.80;99.90
48206;DHT22;33995;48.202;16.260;2022-09-30T08:12:07;11.90;99.90
48206;DHT22;33995;48.202;16.260;2022-09-30T08:14:37;11.90;99.90
48206;DHT22;33995;48.202;16.260;2022-09-30T08:17:05;11.90;99.90
48206;DHT22;33995;48.202;16.260;2022-09-30T08:19:32;11.90;99.90
48206;DHT22;33995;48.202;16.260;2022-09-30T08:22:00;11.90;99.90
48206;DHT22;33995;48.202;16.260;2022-09-30T08:24:32;12.00;99.90
48206;DHT22;33995;48.202;16.260;2022-09-30T08:27:00;12.00;99.90
48206;DHT22;33995;48.202;16.260;2022-09-30T08:29:27;12.00;99.90
48206;DHT22;33995;48.202;16.260;2022-09-30T08:32:14;12.00;99.90
48206;DHT22;33995;48.202;16.260;2022-09-30T08:34:42;11.90;99.90
48206;DHT22;33995;48.202;16.260;2022-09-30T08:37:10;12.00;99.90
48206;DHT22;33995;48.202;16.260;2022-09-30T08:39:37;11.90;99.90
48206;DHT22;33995;48.202;16.260;2022-09-30T08:45:19;11.90;99.90
48206;DHT22;33995;48.202;16.260;2022-09-30T08:53:58;11.90;99.90
48206;DHT22;33995;48.202;16.260;2022-09-30T08:56:29;11.90;99.90
48206;DHT22;33995;48.202;16.260;2022-09-30T09:01:46;11.90;99.90
48206;DHT22;33995;48.202;16.260;2022-09-30T09:04:15;12.00;99.90
48206;DHT22;33995;48.202;16.260;2022-09-30T09:09:55;12.10;99.90
48206;DHT22;33995;48.202;16.260;2022-09-30T09:15:11;12.30;99.90
48206;DHT22;33995;48.202;16.260;2022-09-30T09:23:33;12.40;99.90
48206;DHT22;33995;48.202;16.260;2022-09-30T09:26:02;12.50;99.90
48206;DHT22;33995;48.202;16.260;2022-09-30T09:31:20;12.60;99.90
48206;DHT22;33995;48.202;16.260;2022-09-30T09:33:47;12.70;99.90
48206;DHT22;33995;48.202;16.260;2022-09-30T09:41:56;12.90;99.90
48206;DHT22;33995;48.202;16.260;2022-09-30T09:47:15;12.80;99.90
48206;DHT22;33995;48.202;16.260;2022-09-30T09:50:03;12.80;99.90
48206;DHT22;33995;48.202;16.260;2022-09-30T09:55:26;12.70;99.90
48206;DHT22;33995;48.202;16.260;2022-09-30T09:58:14;12.70;99.90
48206;DHT22;33995;48.202;16.260;2022-09-30T10:00:43;12.70;99.90
48206;DHT22;33995;48.202;16.260;2022-09-30T10:03:15;12.70;99.90
48206;DHT22;33995;48.202;16.260;2022-09-30T10:06:08;12.80;99.90
48206;DHT22;33995;48.202;16.260;2022-09-30T10:08:38;12.70;99.90
48206;DHT22;33995;48.202;16.260;2022-09-30T10:11:16;12.60;99.90
48206;DHT22;33995;48.202;16.260;2022-09-30T10:13:45;12.70;99.90
48206;DHT22;33995;48.202;16.260;2022-09-30T10:16:38;12.70;99.90
48206;DHT22;33995;48.202;16.260;2022-09-30T10:19:25;12.60;99.90
48206;DHT22;33995;48.202;16.260;2022-09-30T10:24:37;12.60;99.90
48206;DHT22;33995;48.202;16.260;2022-09-30T10:27:31;12.50;99.90
48206;DHT22;33995;48.202;16.260;2022-09-30T10:29:59;12.50;99.90
48206;DHT22;33995;48.202;16.260;2022-09-30T10:32:27;12.50;99.90
48206;DHT22;33995;48.202;16.260;2022-09-30T10:35:04;12.50;99.90
48206;DHT22;33995;48.202;16.260;2022-09-30T10:37:32;12.50;99.90
48206;DHT22;33995;48.202;16.260;2022-09-30T10:40:04;12.60;99.90
48206;DHT22;33995;48.202;16.260;2022-09-30T10:42:34;12.60;99.90
48206;DHT22;33995;48.202;16.260;2022-09-30T10:45:15;12.60;99.90
48206;DHT22;33995;48.202;16.260;2022-09-30T10:47:48;12.60;99.90
48206;DHT22;33995;48.202;16.260;2022-09-30T10:50:20;12.60;99.90
48206;DHT22;33995;48.202;16.260;2022-09-30T10:53:02;12.70;99.90
48206;DHT22;33995;48.202;16.260;2022-09-30T10:55:33;12.80;99.90
48206;DHT22;33995;48.202;16.260;2022-09-30T11:06:31;13.40;99.90
48206;DHT22;33995;48.202;16.260;2022-09-30T11:09:13;13.50;99.90
48206;DHT22;33995;48.202;16.260;2022-09-30T11:11:45;13.60;99.90
48206;DHT22;33995;48.202;16.260;2022-09-30T11:14:32;13.60;99.90
48206;DHT22;33995;48.202;16.260;2022-09-30T11:19:48;13.70;99.90
48206;DHT22;33995;48.202;16.260;2022-09-30T11:25:15;14.00;99.90
48206;DHT22;33995;48.202;16.260;2022-09-30T11:33:38;14.00;99.90
48206;DHT22;33995;48.202;16.260;2022-09-30T11:39:12;14.10;99.90
48206;DHT22;33995;48.202;16.260;2022-09-30T11:41:52;14.30;99.90
48206;DHT22;33995;48.202;16.260;2022-09-30T11:44:35;14.50;99.90
48206;DHT22;33995;48.202;16.260;2022-09-30T11:50:32;14.80;99.90
48206;DHT22;33995;48.202;16.260;2022-09-30T11:53:26;14.90;99.90
48206;DHT22;33995;48.202;16.260;2022-09-30T11:58:44;14.60;99.90
48206;DHT22;33995;48.202;16.260;2022-09-30T12:01:28;14.70;99.90
48206;DHT22;33995;48.202;16.260;2022-09-30T12:04:13;14.50;99.90
48206;DHT22;33995;48.202;16.260;2022-09-30T12:07:06;14.60;99.90
48206;DHT22;33995;48.202;16.260;2022-09-30T12:09:41;14.70;99.90
48206;DHT22;33995;48.202;16.260;2022-09-30T12:12:12;14.70;99.90
48206;DHT22;33995;48.202;16.260;2022-09-30T12:14:49;14.70;99.90
48206;DHT22;33995;48.202;16.260;2022-09-30T12:22:46;14.70;99.90
48206;DHT22;33995;48.202;16.260;2022-09-30T12:25:27;14.70;99.90
48206;DHT22;33995;48.202;16.260;2022-09-30T12:30:27;14.70;99.90
48206;DHT22;33995;48.202;16.260;2022-09-30T12:36:25;16.30;99.90
48206;DHT22;33995;48.202;16.260;2022-09-30T12:41:50;17.90;99.90
48206;DHT22;33995;48.202;16.260;2022-09-30T12:45:23;17.80;99.90
48206;DHT22;33995;48.202;16.260;2022-09-30T12:47:50;17.50;99.90
48206;DHT22;33995;48.202;16.260;2022-09-30T12:50:22;17.60;99.90
48206;DHT22;33995;48.202;16.260;2022-09-30T12:52:55;17.40;99.90
48206;DHT22;33995;48.202;16.260;2022-09-30T12:55:27;17.20;99.90
48206;DHT22;33995;48.202;16.260;2022-09-30T12:57:58;17.00;99.90
48206;DHT22;33995;48.202;16.260;2022-09-30T13:00:32;16.90;99.90
48206;DHT22;33995;48.202;16.260;2022-09-30T13:03:06;16.90;99.90
48206;DHT22;33995;48.202;16.260;2022-09-30T13:13:18;16.20;99.90
48206;DHT22;33995;48.202;16.260;2022-09-30T13:15:46;16.30;99.90
48206;DHT22;33995;48.202;16.260;2022-09-30T13:20:53;16.50;99.90
48206;DHT22;33995;48.202;16.260;2022-09-30T13:27:05;16.80;99.90
48206;DHT22;33995;48.202;16.260;2022-09-30T13:34:24;16.40;99.90
48206;DHT22;33995;48.202;16.260;2022-09-30T13:36:59;16.30;99.90
48206;DHT22;33995;48.202;16.260;2022-09-30T13:39:30;16.10;99.90
48206;DHT22;33995;48.202;16.260;2022-09-30T13:45:03;15.90;99.90
48206;DHT22;33995;48.202;16.260;2022-09-30T13:52:55;15.80;99.90
48206;DHT22;33995;48.202;16.260;2022-09-30T13:55:30;15.80;99.90
48206;DHT22;33995;48.202;16.260;2022-09-30T14:09:25;16.00;99.90
48206;DHT22;33995;48.202;16.260;2022-09-30T14:12:16;16.10;99.90
48206;DHT22;33995;48.202;16.260;2022-09-30T14:20:29;16.60;99.90
48206;DHT22;33995;48.202;16.260;2022-09-30T14:23:00;16.90;99.90
48206;DHT22;33995;48.202;16.260;2022-09-30T14:25:36;16.90;99.90
48206;DHT22;33995;48.202;16.260;2022-09-30T14:28:16;16.70;99.90
48206;DHT22;33995;48.202;16.260;2022-09-30T14:30:48;16.60;99.90
48206;DHT22;33995;48.202;16.260;2022-09-30T14:33:35;16.60;99.90
48206;DHT22;33995;48.202;16.260;2022-09-30T14:36:10;16.80;99.90
48206;DHT22;33995;48.202;16.260;2022-09-30T14:38:38;17.40;99.90
48206;DHT22;33995;48.202;16.260;2022-09-30T14:41:06;18.00;99.90
48206;DHT22;33995;48.202;16.260;2022-09-30T14:43:41;18.00;99.90
48206;DHT22;33995;48.202;16.260;2022-09-30T14:48:51;17.30;99.90
48206;DHT22;33995;48.202;16.260;2022-09-30T14:51:19;16.90;99.90
48206;DHT22;33995;48.202;16.260;2022-09-30T14:53:55;16.70;99.90
48206;DHT22;33995;48.202;16.260;2022-09-30T14:56:31;16.40;99.90
48206;DHT22;33995;48.202;16.260;2022-09-30T14:59:20;16.20;99.90
48206;DHT22;33995;48.202;16.260;2022-09-30T15:01:50;16.10;99.90
48206;DHT22;33995;48.202;16.260;2022-09-30T15:04:25;16.00;99.90
48206;DHT22;33995;48.202;16.260;2022-09-30T15:06:54;15.80;99.90
48206;DHT22;33995;48.202;16.260;2022-09-30T15:09:25;15.70;99.90
48206;DHT22;33995;48.202;16.260;2022-09-30T15:11:54;15.70;99.90
48206;DHT22;33995;48.202;16.260;2022-09-30T15:14:23;15.60;99.90
48206;DHT22;33995;48.202;16.260;2022-09-30T15:16:53;15.40;99.90
48206;DHT22;33995;48.202;16.260;2022-09-30T15:19:26;15.40;99.90
48206;DHT22;33995;48.202;16.260;2022-09-30T15:22:03;15.30;99.90
48206;DHT22;33995;48.202;16.260;2022-09-30T15:24:34;15.20;99.90
48206;DHT22;33995;48.202;16.260;2022-09-30T15:27:02;15.20;99.90
48206;DHT22;33995;48.202;16.260;2022-09-30T15:29:30;15.10;99.90
48206;DHT22;33995;48.202;16.260;2022-09-30T15:32:03;15.00;99.90
48206;DHT22;33995;48.202;16.260;2022-09-30T15:34:30;15.00;99.90
48206;DHT22;33995;48.202;16.260;2022-09-30T15:37:03;15.00;99.90
48206;DHT22;33995;48.202;16.260;2022-09-30T15:39:40;14.90;99.90
48206;DHT22;33995;48.202;16.260;2022-09-30T15:44:55;14.90;99.90
48206;DHT22;33995;48.202;16.260;2022-09-30T15:47:26;14.90;99.90
48206;DHT22;33995;48.202;16.260;2022-09-30T15:49:54;14.90;99.90
48206;DHT22;33995;48.202;16.260;2022-09-30T15:52:36;14.90;99.90
48206;DHT22;33995;48.202;16.260;2022-09-30T15:55:35;14.90;99.90
48206;DHT22;33995;48.202;16.260;2022-09-30T15:58:03;14.80;99.90
48206;DHT22;33995;48.202;16.260;2022-09-30T16:00:33;14.70;99.90
48206;DHT22;33995;48.202;16.260;2022-09-30T16:05:45;14.70;99.90
48206;DHT22;33995;48.202;16.260;2022-09-30T16:08:25;14.60;99.90
48206;DHT22;33995;48.202;16.260;2022-09-30T16:10:55;14.60;99.90
48206;DHT22;33995;48.202;16.260;2022-09-30T16:13:26;14.50;99.90
48206;DHT22;33995;48.202;16.260;2022-09-30T16:15:56;14.50;99.90
48206;DHT22;33995;48.202;16.260;2022-09-30T16:18:27;14.50;99.90
48206;DHT22;33995;48.202;16.260;2022-09-30T16:21:03;14.40;99.90
48206;DHT22;33995;48.202;16.260;2022-09-30T16:23:41;14.40;99.90
48206;DHT22;33995;48.202;16.260;2022-09-30T16:28:42;14.40;99.90
48206;DHT22;33995;48.202;16.260;2022-09-30T16:31:10;14.40;99.90
48206;DHT22;33995;48.202;16.260;2022-09-30T16:33:41;14.30;99.90
48206;DHT22;33995;48.202;16.260;2022-09-30T16:36:09;14.30;99.90
48206;DHT22;33995;48.202;16.260;2022-09-30T16:38:37;14.30;99.90
48206;DHT22;33995;48.202;16.260;2022-09-30T16:41:04;14.20;99.90
48206;DHT22;33995;48.202;16.260;2022-09-30T16:43:32;14.20;99.90
48206;DHT22;33995;48.202;16.260;2022-09-30T16:46:01;14.20;99.90
48206;DHT22;33995;48.202;16.260;2022-09-30T16:48:29;14.20;99.90
48206;DHT22;33995;48.202;16.260;2022-09-30T16:51:05;14.20;99.90
48206;DHT22;33995;48.202;16.260;2022-09-30T16:53:34;14.10;99.90
48206;DHT22;33995;48.202;16.260;2022-09-30T16:56:01;14.20;99.90
48206;DHT22;33995;48.202;16.260;2022-09-30T16:58:30;14.20;99.90
48206;DHT22;33995;48.202;16.260;2022-09-30T17:00:58;14.20;99.90
48206;DHT22;33995;48.202;16.260;2022-09-30T17:03:26;14.20;99.90
48206;DHT22;33995;48.202;16.260;2022-09-30T17:05:54;14.10;99.90
48206;DHT22;33995;48.202;16.260;2022-09-30T17:08:22;14.10;99.90
48206;DHT22;33995;48.202;16.260;2022-09-30T17:10:50;14.00;99.90
48206;DHT22;33995;48.202;16.260;2022-09-30T17:13:18;14.00;99.90
48206;DHT22;33995;48.202;16.260;2022-09-30T17:15:49;14.00;99.90
48206;DHT22;33995;48.202;16.260;2022-09-30T17:18:17;14.00;99.90
48206;DHT22;33995;48.202;16.260;2022-09-30T17:20:46;13.90;99.90
48206;DHT22;33995;48.202;16.260;2022-09-30T17:23:21;14.00;99.90
48206;DHT22;33995;48.202;16.260;2022-09-30T17:25:49;13.90;99.90
48206;DHT22;33995;48.202;16.260;2022-09-30T17:28:17;13.90;99.90
48206;DHT22;33995;48.202;16.260;2022-09-30T17:30:45;13.90;99.90
48206;DHT22;33995;48.202;16.260;2022-09-30T17:33:15;13.90;99.90
48206;DHT22;33995;48.202;16.260;2022-09-30T17:35:43;13.80;99.90
48206;DHT22;33995;48.202;16.260;2022-09-30T17:38:12;13.80;99.90
48206;DHT22;33995;48.202;16.260;2022-09-30T17:40:42;13.80;99.90
48206;DHT22;33995;48.202;16.260;2022-09-30T17:43:28;13.70;99.90
48206;DHT22;33995;48.202;16.260;2022-09-30T17:45:57;13.70;99.90
48206;DHT22;33995;48.202;16.260;2022-09-30T17:48:25;13.70;99.90
48206;DHT22;33995;48.202;16.260;2022-09-30T17:50:53;13.70;99.90
48206;DHT22;33995;48.202;16.260;2022-09-30T17:53:25;13.70;99.90
48206;DHT22;33995;48.202;16.260;2022-09-30T17:56:10;13.70;99.90
48206;DHT22;33995;48.202;16.260;2022-09-30T17:58:40;13.70;99.90
48206;DHT22;33995;48.202;16.260;2022-09-30T18:01:09;13.70;99.90
48206;DHT22;33995;48.202;16.260;2022-09-30T18:03:37;13.70;99.90
48206;DHT22;33995;48.202;16.260;2022-09-30T18:06:05;13.70;99.90
48206;DHT22;33995;48.202;16.260;2022-09-30T18:08:33;13.60;99.90
48206;DHT22;33995;48.202;16.260;2022-09-30T18:11:02;13.60;99.90
48206;DHT22;33995;48.202;16.260;2022-09-30T18:13:29;13.60;99.90
48206;DHT22;33995;48.202;16.260;2022-09-30T18:15:57;13.60;99.90
48206;DHT22;33995;48.202;16.260;2022-09-30T18:18:28;13.60;99.90
48206;DHT22;33995;48.202;16.260;2022-09-30T18:20:56;13.60;99.90
48206;DHT22;33995;48.202;16.260;2022-09-30T18:23:25;13.60;99.90
48206;DHT22;33995;48.202;16.260;2022-09-30T18:25:53;13.60;99.90
48206;DHT22;33995;48.202;16.260;2022-09-30T18:28:22;13.60;99.90
48206;DHT22;33995;48.202;16.260;2022-09-30T18:30:53;13.60;99.90
48206;DHT22;33995;48.202;16.260;2022-09-30T18:33:20;13.60;99.90
48206;DHT22;33995;48.202;16.260;2022-09-30T18:35:48;13.60;99.90
48206;DHT22;33995;48.202;16.260;2022-09-30T18:38:17;13.50;99.90
48206;DHT22;33995;48.202;16.260;2022-09-30T18:40:53;13.50;99.90
48206;DHT22;33995;48.202;16.260;2022-09-30T18:43:21;13.50;99.90
48206;DHT22;33995;48.202;16.260;2022-09-30T18:45:54;13.50;99.90
48206;DHT22;33995;48.202;16.260;2022-09-30T18:48:25;13.50;99.90
48206;DHT22;33995;48.202;16.260;2022-09-30T18:50:53;13.60;99.90